createdAt,value
2022-11-17T00:01:10.035Z,10.52
2022-11-17T00:03:37.788Z,10.65
2022-11-17T00:06:07.325Z,11.35
2022-11-17T00:08:34.735Z,10.89
2022-11-17T00:11:04.190Z,10.64
2022-11-17T00:13:51.374Z,10.61
2022-11-17T00:16:22.551Z,10.94
2022-11-17T00:19:09.249Z,10.75
2022-11-17T00:21:39.304Z,10.73
2022-11-17T00:24:07.250Z,10.81
2022-11-17T00:26:56.829Z,10.62
2022-11-17T00:29:31.781Z,10.63
2022-11-17T00:32:17.755Z,10.53
2022-11-17T00:34:45.333Z,10.52
2022-11-17T00:37:15.346Z,10.43
2022-11-17T00:39:42.771Z,10.37
2022-11-17T00:42:10.408Z,10.43
2022-11-17T00:45:04.651Z,10.53
2022-11-17T00:47:36.361Z,10.46
2022-11-17T00:50:04.134Z,10.52
2022-11-17T00:52:31.394Z,10.73
2022-11-17T00:54:58.689Z,10.70
2022-11-17T00:57:26.332Z,10.83
2022-11-17T00:59:53.987Z,10.75
2022-11-17T01:02:30.895Z,10.71
2022-11-17T01:04:58.123Z,10.73
2022-11-17T01:07:30.571Z,10.54
2022-11-17T01:09:57.947Z,10.69
2022-11-17T01:12:25.302Z,11.11
2022-11-17T01:14:52.593Z,10.98
2022-11-17T01:17:19.811Z,10.93
2022-11-17T01:19:49.275Z,10.82
2022-11-17T01:22:17.692Z,10.96
2022-11-17T01:24:48.608Z,11.10
2022-11-17T01:27:59.348Z,11.07
2022-11-17T01:33:39.591Z,11.00
2022-11-17T01:36:25.929Z,10.99
2022-11-17T01:38:53.285Z,10.81
2022-11-17T01:41:26.949Z,10.98
2022-11-17T01:44:13.501Z,11.07
2022-11-17T01:46:43.070Z,11.00
2022-11-17T01:49:19.997Z,10.76
2022-11-17T01:51:59.067Z,10.65
2022-11-17T01:54:34.208Z,10.86
2022-11-17T01:57:21.946Z,10.98
2022-11-17T02:00:04.554Z,11.16
2022-11-17T02:02:41.947Z,11.22
2022-11-17T02:06:10.028Z,10.80
2022-11-17T02:08:46.102Z,11.05
2022-11-17T02:11:27.983Z,11.27
2022-11-17T02:14:36.844Z,11.32
2022-11-17T02:17:10.274Z,11.43
2022-11-17T02:19:46.459Z,11.25
2022-11-17T02:22:44.776Z,11.37
2022-11-17T02:25:39.246Z,11.34
2022-11-17T02:28:21.529Z,11.16
2022-11-17T02:31:23.237Z,11.09
2022-11-17T02:34:10.242Z,10.88
2022-11-17T02:37:30.701Z,10.63
2022-11-17T02:40:19.013Z,10.56
2022-11-17T02:43:17.671Z,10.52
2022-11-17T02:46:01.380Z,10.59
2022-11-17T02:48:37.040Z,10.53
2022-11-17T02:51:12.530Z,10.56
2022-11-17T02:53:42.558Z,9.92
2022-11-17T02:56:10.747Z,10.13
2022-11-17T02:58:42.729Z,10.26
2022-11-17T03:01:44.485Z,10.28
2022-11-17T03:04:57.720Z,10.62
2022-11-17T03:08:28.722Z,10.29
2022-11-17T03:11:10.346Z,10.21
2022-11-17T03:14:04.854Z,10.28
2022-11-17T03:16:46.086Z,10.49
2022-11-17T03:19:34.975Z,10.63
2022-11-17T03:22:27.883Z,10.79
2022-11-17T03:25:05.957Z,10.87
2022-11-17T03:27:46.012Z,10.96
2022-11-17T03:30:18.077Z,11.16
2022-11-17T03:32:55.057Z,11.43
2022-11-17T03:35:31.630Z,11.19
2022-11-17T03:38:11.246Z,10.68
2022-11-17T03:40:48.230Z,11.12
2022-11-17T03:43:25.746Z,11.27
2022-11-17T03:46:03.437Z,11.42
2022-11-17T03:49:05.907Z,11.51
2022-11-17T03:51:33.506Z,11.45
2022-11-17T03:54:01.665Z,11.72
2022-11-17T03:56:57.854Z,11.69
2022-11-17T04:00:08.308Z,11.66
2022-11-17T04:02:49.004Z,11.32
2022-11-17T04:05:18.380Z,11.55
2022-11-17T04:07:48.237Z,11.72
2022-11-17T04:10:26.645Z,11.83
2022-11-17T04:13:13.336Z,11.64
2022-11-17T04:15:59.200Z,11.78
2022-11-17T04:18:27.173Z,11.86
2022-11-17T04:20:57.567Z,11.85
2022-11-17T04:23:25.932Z,11.85
2022-11-17T04:26:15.438Z,11.91
2022-11-17T04:28:48.989Z,11.88
2022-11-17T04:31:27.053Z,11.79
2022-11-17T04:34:02.995Z,11.71
2022-11-17T04:36:37.751Z,11.66
2022-11-17T04:39:05.020Z,11.80
2022-11-17T04:41:53.527Z,11.94
2022-11-17T04:44:27.587Z,12.03
2022-11-17T04:46:57.090Z,12.13
2022-11-17T04:49:26.073Z,12.18
2022-11-17T04:51:54.190Z,12.24
2022-11-17T04:54:24.735Z,12.49
2022-11-17T04:56:54.635Z,12.37
2022-11-17T04:59:22.311Z,12.25
2022-11-17T05:01:49.950Z,12.34
2022-11-17T05:04:39.766Z,12.22
2022-11-17T05:07:08.747Z,12.16
2022-11-17T05:09:36.212Z,12.27
2022-11-17T05:12:22.289Z,12.40
2022-11-17T05:14:50.348Z,12.05
2022-11-17T05:17:18.039Z,12.25
2022-11-17T05:19:48.583Z,12.46
2022-11-17T05:22:40.562Z,12.53
2022-11-17T05:25:09.657Z,12.75
2022-11-17T05:27:38.033Z,12.54
2022-11-17T05:30:08.981Z,12.42
2022-11-17T05:32:36.114Z,12.37
2022-11-17T05:35:03.474Z,12.36
2022-11-17T05:37:30.595Z,12.20
2022-11-17T05:39:57.719Z,12.33
2022-11-17T05:42:24.869Z,12.59
2022-11-17T05:44:52.022Z,12.26
2022-11-17T05:47:19.274Z,12.30
2022-11-17T05:49:46.502Z,12.35
2022-11-17T05:52:13.769Z,12.13
2022-11-17T05:54:41.029Z,11.93
2022-11-17T05:57:21.910Z,11.98
2022-11-17T06:00:00.741Z,12.36
2022-11-17T06:02:43.668Z,12.37
2022-11-17T06:05:14.416Z,12.20
2022-11-17T06:07:44.658Z,12.05
2022-11-17T06:10:11.787Z,11.95
2022-11-17T06:12:38.927Z,11.81
2022-11-17T06:15:06.902Z,11.77
2022-11-17T06:17:53.734Z,11.81
2022-11-17T06:20:35.421Z,11.94
2022-11-17T06:23:07.185Z,12.11
2022-11-17T06:25:38.126Z,12.17
2022-11-17T06:28:13.985Z,12.34
2022-11-17T06:30:42.909Z,12.33
2022-11-17T06:33:15.680Z,12.30
2022-11-17T06:35:45.244Z,12.14
2022-11-17T06:38:12.538Z,12.19
2022-11-17T06:43:33.466Z,12.23
2022-11-17T06:46:05.893Z,12.37
2022-11-17T06:48:35.535Z,12.20
2022-11-17T06:51:05.742Z,12.01
2022-11-17T06:53:35.146Z,12.22
2022-11-17T06:56:07.519Z,12.02
2022-11-17T06:58:39.192Z,11.80
2022-11-17T07:01:17.247Z,11.79
2022-11-17T07:03:44.515Z,11.98
2022-11-17T07:06:12.933Z,12.11
2022-11-17T07:08:40.269Z,12.45
2022-11-17T07:11:15.245Z,12.79
2022-11-17T07:13:43.224Z,13.06
2022-11-17T07:16:23.546Z,13.19
2022-11-17T07:18:53.566Z,13.02
2022-11-17T07:21:22.421Z,13.20
2022-11-17T07:23:49.596Z,13.18
2022-11-17T07:26:16.804Z,13.36
2022-11-17T07:28:44.018Z,13.16
2022-11-17T07:31:13.821Z,12.99
2022-11-17T07:33:41.418Z,12.88
2022-11-17T07:36:14.751Z,13.08
2022-11-17T07:38:42.685Z,13.46
2022-11-17T07:41:14.985Z,13.22
2022-11-17T07:43:42.502Z,13.47
2022-11-17T07:46:14.407Z,13.27
2022-11-17T07:48:43.905Z,13.29
2022-11-17T07:51:13.974Z,13.30
2022-11-17T07:53:41.336Z,13.39
2022-11-17T07:56:11.620Z,13.34
2022-11-17T07:58:40.534Z,13.40
2022-11-17T08:01:17.973Z,13.59
2022-11-17T08:03:45.941Z,13.57
2022-11-17T08:06:14.052Z,13.57
2022-11-17T08:08:41.354Z,13.81
2022-11-17T08:11:12.865Z,13.69
2022-11-17T08:13:41.604Z,13.98
2022-11-17T08:16:10.920Z,14.06
2022-11-17T08:18:39.564Z,13.80
2022-11-17T08:21:13.896Z,14.05
2022-11-17T08:23:42.280Z,14.55
2022-11-17T08:26:11.868Z,14.76
2022-11-17T08:28:39.601Z,15.44
2022-11-17T08:31:08.393Z,15.21
2022-11-17T08:33:36.645Z,15.47
2022-11-17T08:36:07.215Z,15.60
2022-11-17T08:38:36.365Z,15.43
2022-11-17T08:41:08.138Z,15.85
2022-11-17T08:43:36.590Z,15.71
2022-11-17T08:46:04.789Z,15.38
2022-11-17T08:48:33.407Z,15.64
2022-11-17T08:51:07.945Z,15.65
2022-11-17T08:53:35.441Z,15.58
2022-11-17T08:56:09.951Z,15.97
2022-11-17T08:58:46.164Z,16.19
2022-11-17T09:01:16.610Z,16.39
2022-11-17T09:03:47.912Z,16.05
2022-11-17T09:06:17.759Z,16.70
2022-11-17T09:08:56.344Z,17.13
2022-11-17T09:11:24.199Z,17.31
2022-11-17T09:13:51.616Z,17.59
2022-11-17T09:16:19.030Z,18.04
2022-11-17T09:18:46.947Z,18.35
2022-11-17T09:21:16.056Z,18.50
2022-11-17T09:23:43.842Z,19.03
2022-11-17T09:26:15.377Z,17.74
2022-11-17T09:28:45.067Z,17.94
2022-11-17T09:31:22.028Z,18.24
2022-11-17T09:33:50.020Z,18.50
2022-11-17T09:36:17.843Z,17.86
2022-11-17T09:38:46.747Z,18.68
2022-11-17T09:41:31.464Z,19.13
2022-11-17T09:44:42.301Z,18.87
2022-11-17T09:47:42.524Z,21.08
2022-11-17T09:50:29.667Z,24.22
2022-11-17T09:53:58.815Z,25.03
2022-11-17T09:56:27.794Z,23.09
2022-11-17T09:59:05.161Z,20.92
2022-11-17T10:01:32.742Z,20.25
2022-11-17T10:04:01.449Z,19.83
2022-11-17T10:06:32.391Z,19.59
2022-11-17T10:09:35.661Z,19.36
2022-11-17T10:12:20.902Z,19.18
2022-11-17T10:15:00.235Z,19.41
2022-11-17T10:17:27.524Z,20.30
2022-11-17T10:19:58.559Z,21.75
2022-11-17T10:22:39.190Z,24.15
2022-11-17T10:25:40.876Z,26.61
2022-11-17T10:28:33.618Z,27.89
2022-11-17T10:31:10.836Z,26.51
2022-11-17T10:34:03.181Z,26.42
2022-11-17T10:36:36.780Z,26.22
2022-11-17T10:39:04.377Z,24.95
2022-11-17T10:41:45.378Z,24.58
2022-11-17T10:44:25.777Z,24.21
2022-11-17T10:47:04.895Z,22.26
2022-11-17T10:49:39.820Z,22.50
2022-11-17T10:52:18.314Z,22.24
2022-11-17T10:55:20.500Z,22.21
2022-11-17T10:57:47.958Z,20.56
2022-11-17T11:00:46.686Z,19.84
2022-11-17T11:03:50.748Z,20.38
2022-11-17T11:06:27.332Z,22.73
2022-11-17T11:09:21.806Z,24.43
2022-11-17T11:11:55.414Z,24.91
2022-11-17T11:14:40.673Z,24.92
2022-11-17T11:17:18.075Z,25.58
2022-11-17T11:20:14.870Z,24.56
2022-11-17T11:23:03.266Z,23.94
2022-11-17T11:26:59.601Z,22.93
2022-11-17T11:30:03.250Z,21.61
2022-11-17T11:33:04.952Z,22.91
2022-11-17T11:36:01.930Z,21.76
2022-11-17T11:38:58.015Z,22.44
2022-11-17T11:42:32.186Z,23.82
2022-11-17T11:45:17.975Z,24.88
2022-11-17T11:48:28.282Z,23.70
2022-11-17T11:51:33.075Z,22.00
2022-11-17T11:54:19.836Z,20.87
2022-11-17T11:56:53.203Z,20.19
2022-11-17T11:59:50.441Z,20.05
2022-11-17T12:03:11.043Z,19.62
2022-11-17T12:06:28.434Z,19.48
2022-11-17T12:10:09.956Z,20.81
2022-11-17T12:12:40.772Z,22.86
2022-11-17T12:15:34.277Z,24.48
2022-11-17T12:18:24.738Z,24.54
2022-11-17T12:20:59.589Z,25.38
2022-11-17T12:24:15.890Z,26.09
2022-11-17T12:26:43.736Z,25.15
2022-11-17T12:29:20.277Z,23.14
2022-11-17T12:32:01.631Z,21.84
2022-11-17T12:34:37.741Z,20.64
2022-11-17T12:37:28.678Z,20.34
2022-11-17T12:40:09.631Z,20.49
2022-11-17T12:43:15.880Z,20.77
2022-11-17T12:46:22.304Z,21.66
2022-11-17T12:49:07.932Z,22.42
2022-11-17T12:52:07.068Z,22.42
2022-11-17T12:55:05.313Z,22.30
2022-11-17T12:58:10.299Z,22.00
2022-11-17T13:00:29.582Z,21.25
2022-11-17T13:03:10.283Z,20.64
2022-11-17T13:05:38.501Z,21.05
2022-11-17T13:08:32.331Z,21.16
2022-11-17T13:11:17.186Z,20.94
2022-11-17T13:13:47.849Z,21.43
2022-11-17T13:16:21.627Z,22.11
2022-11-17T13:18:49.745Z,22.63
2022-11-17T13:21:45.494Z,22.64
2022-11-17T13:24:28.564Z,23.56
2022-11-17T13:27:18.015Z,22.49
2022-11-17T13:29:47.634Z,20.91
2022-11-17T13:32:24.233Z,21.04
2022-11-17T13:34:58.014Z,21.24
2022-11-17T13:37:39.149Z,20.74
2022-11-17T13:40:23.380Z,20.44
2022-11-17T13:43:01.000Z,20.18
2022-11-17T13:45:28.673Z,20.22
2022-11-17T13:47:59.381Z,20.33
2022-11-17T13:50:28.150Z,20.11
2022-11-17T13:53:06.610Z,20.12
2022-11-17T13:55:34.818Z,20.27
2022-11-17T13:58:07.228Z,20.36
2022-11-17T14:00:42.538Z,20.26
2022-11-17T14:03:43.654Z,20.74
2022-11-17T14:06:14.624Z,20.49
2022-11-17T14:09:02.505Z,21.03
2022-11-17T14:11:30.312Z,20.37
2022-11-17T14:14:01.113Z,19.77
2022-11-17T14:16:40.314Z,19.64
2022-11-17T14:19:17.419Z,19.91
2022-11-17T14:22:03.310Z,19.57
2022-11-17T14:24:33.082Z,19.11
2022-11-17T14:27:01.721Z,18.92
2022-11-17T14:29:29.783Z,18.79
2022-11-17T14:31:57.270Z,18.85
2022-11-17T14:34:24.779Z,18.80
2022-11-17T14:36:55.375Z,18.98
2022-11-17T14:39:23.109Z,18.83
2022-11-17T14:41:52.363Z,18.60
2022-11-17T14:44:21.864Z,18.48
2022-11-17T14:47:15.331Z,18.35
2022-11-17T14:49:46.362Z,18.30
2022-11-17T14:52:16.699Z,18.06
2022-11-17T14:54:44.033Z,18.16
2022-11-17T14:57:11.810Z,18.09
2022-11-17T14:59:40.068Z,17.87
2022-11-17T15:02:12.141Z,17.86
2022-11-17T15:04:51.294Z,17.91
2022-11-17T15:07:20.229Z,17.94
2022-11-17T15:09:49.338Z,17.94
2022-11-17T15:12:17.227Z,18.09
2022-11-17T15:14:47.508Z,18.11
2022-11-17T15:17:18.904Z,18.06
2022-11-17T15:19:46.472Z,18.03
2022-11-17T15:22:14.196Z,17.92
2022-11-17T15:24:42.421Z,17.94
2022-11-17T15:27:12.355Z,17.83
2022-11-17T15:29:39.861Z,17.83
2022-11-17T15:32:07.995Z,17.66
2022-11-17T15:34:36.780Z,17.40
2022-11-17T15:37:05.454Z,17.49
2022-11-17T15:39:33.195Z,17.34
2022-11-17T15:42:04.870Z,17.02
2022-11-17T15:44:32.314Z,17.05
2022-11-17T15:47:03.775Z,16.78
2022-11-17T15:49:31.935Z,16.47
2022-11-17T15:51:59.545Z,16.77
2022-11-17T15:54:30.668Z,16.49
2022-11-17T15:57:00.625Z,16.19
2022-11-17T15:59:28.363Z,15.77
2022-11-17T16:01:58.617Z,15.72
2022-11-17T16:04:29.231Z,15.82
2022-11-17T16:06:56.555Z,15.99
2022-11-17T16:09:23.873Z,16.00
2022-11-17T16:11:51.407Z,15.99
2022-11-17T16:14:18.842Z,15.86
2022-11-17T16:16:47.908Z,15.77
2022-11-17T16:19:15.828Z,15.74
2022-11-17T16:21:44.573Z,15.53
2022-11-17T16:24:15.233Z,15.32
2022-11-17T16:26:43.221Z,15.16
2022-11-17T16:29:10.445Z,15.40
2022-11-17T16:31:39.010Z,15.56
2022-11-17T16:34:16.272Z,15.40
2022-11-17T16:36:44.601Z,15.26
2022-11-17T16:39:17.494Z,15.08
2022-11-17T16:41:45.963Z,15.00
2022-11-17T16:44:18.199Z,14.51
2022-11-17T16:46:48.639Z,14.38
2022-11-17T16:49:41.150Z,14.39
2022-11-17T16:52:18.228Z,14.34
2022-11-17T16:54:45.596Z,14.67
2022-11-17T16:57:13.105Z,14.79
2022-11-17T16:59:40.823Z,14.59
2022-11-17T17:02:13.823Z,14.53
2022-11-17T17:04:40.969Z,14.91
2022-11-17T17:07:08.156Z,14.88
2022-11-17T17:09:37.381Z,14.68
2022-11-17T17:12:06.121Z,14.98
2022-11-17T17:14:33.574Z,15.13
2022-11-17T17:17:01.031Z,15.07
2022-11-17T17:19:29.115Z,15.11
2022-11-17T17:21:57.062Z,15.04
2022-11-17T17:24:24.578Z,14.88
2022-11-17T17:26:51.825Z,14.88
2022-11-17T17:29:19.543Z,15.02
2022-11-17T17:31:46.871Z,15.00
2022-11-17T17:34:14.175Z,15.06
2022-11-17T17:36:41.614Z,14.90
2022-11-17T17:39:15.715Z,14.93
2022-11-17T17:41:44.618Z,14.96
2022-11-17T17:44:19.340Z,15.01
2022-11-17T17:46:47.398Z,14.72
2022-11-17T17:49:16.141Z,15.00
2022-11-17T17:51:45.315Z,14.95
2022-11-17T17:54:23.920Z,15.12
2022-11-17T17:56:51.280Z,15.10
2022-11-17T17:59:19.182Z,15.22
2022-11-17T18:01:47.746Z,15.31
2022-11-17T18:04:16.700Z,15.21
2022-11-17T18:06:47.748Z,15.70
2022-11-17T18:09:19.409Z,15.52
2022-11-17T18:11:50.505Z,15.34
2022-11-17T18:14:24.018Z,15.44
2022-11-17T18:16:53.641Z,15.35
2022-11-17T18:19:21.527Z,15.40
2022-11-17T18:21:49.107Z,15.51
2022-11-17T18:24:16.393Z,15.65
2022-11-17T18:26:43.766Z,15.73
2022-11-17T18:29:19.603Z,15.74
2022-11-17T18:31:48.448Z,15.59
2022-11-17T18:34:20.992Z,15.48
2022-11-17T18:36:55.449Z,15.37
2022-11-17T18:39:23.619Z,15.42
2022-11-17T18:41:51.796Z,15.50
2022-11-17T18:44:19.981Z,15.42
2022-11-17T18:46:47.966Z,15.56
2022-11-17T18:49:16.595Z,15.50
2022-11-17T18:51:44.502Z,15.42
2022-11-17T18:54:13.021Z,15.35
2022-11-17T18:56:41.245Z,15.31
2022-11-17T18:59:12.380Z,15.18
2022-11-17T19:01:42.891Z,15.25
2022-11-17T19:04:13.810Z,15.24
2022-11-17T19:06:42.240Z,15.14
2022-11-17T19:09:10.933Z,15.35
2022-11-17T19:11:39.461Z,15.45
2022-11-17T19:14:07.537Z,15.27
2022-11-17T19:16:42.503Z,15.25
2022-11-17T19:19:20.919Z,15.02
2022-11-17T19:21:51.134Z,14.93
2022-11-17T19:24:18.459Z,15.33
2022-11-17T19:26:45.951Z,15.39
2022-11-17T19:29:17.190Z,15.57
2022-11-17T19:31:46.830Z,15.68
2022-11-17T19:34:15.685Z,15.73
2022-11-17T19:36:44.358Z,16.17
2022-11-17T19:39:13.366Z,16.31
2022-11-17T19:41:40.907Z,15.98
2022-11-17T19:44:09.541Z,16.21
2022-11-17T19:46:37.565Z,16.02
2022-11-17T19:49:07.692Z,15.90
2022-11-17T19:51:37.330Z,15.99
2022-11-17T19:54:10.002Z,16.12
2022-11-17T19:56:38.361Z,16.15
2022-11-17T19:59:11.006Z,15.88
2022-11-17T20:01:41.524Z,15.72
2022-11-17T20:04:08.932Z,15.64
2022-11-17T20:06:38.870Z,15.51
2022-11-17T20:09:11.238Z,15.39
2022-11-17T20:11:40.025Z,15.09
2022-11-17T20:14:07.734Z,15.05
2022-11-17T20:16:36.708Z,15.09
2022-11-17T20:19:04.863Z,15.03
2022-11-17T20:21:32.320Z,14.52
2022-11-17T20:24:01.068Z,14.24
2022-11-17T20:26:33.372Z,14.21
2022-11-17T20:29:01.722Z,13.82
2022-11-17T20:31:34.039Z,13.95
2022-11-17T20:34:05.264Z,13.88
2022-11-17T20:36:34.717Z,13.95
2022-11-17T20:39:06.931Z,13.97
2022-11-17T20:41:35.115Z,14.10
2022-11-17T20:44:04.451Z,14.42
2022-11-17T20:46:32.278Z,14.12
2022-11-17T20:49:00.083Z,14.08
2022-11-17T20:51:27.524Z,14.01
2022-11-17T20:53:55.633Z,13.82
2022-11-17T20:56:23.804Z,13.81
2022-11-17T20:58:51.412Z,13.78
2022-11-17T21:01:22.978Z,13.73
2022-11-17T21:03:50.322Z,13.45
2022-11-17T21:06:19.879Z,13.56
2022-11-17T21:08:47.377Z,13.62
2022-11-17T21:11:57.692Z,13.20
2022-11-17T21:14:27.547Z,13.63
2022-11-17T21:16:57.653Z,13.61
2022-11-17T21:19:25.054Z,13.38
2022-11-17T21:21:55.830Z,13.08
2022-11-17T21:24:23.367Z,13.33
2022-11-17T21:26:54.648Z,12.87
2022-11-17T21:29:22.295Z,12.92
2022-11-17T21:31:50.117Z,13.14
2022-11-17T21:34:17.735Z,13.34
2022-11-17T21:36:45.005Z,13.07
2022-11-17T21:39:18.369Z,12.83
2022-11-17T21:41:46.018Z,12.94
2022-11-17T21:44:14.297Z,13.41
2022-11-17T21:46:41.552Z,13.32
2022-11-17T21:49:08.746Z,13.28
2022-11-17T21:51:38.608Z,13.41
2022-11-17T21:54:09.761Z,13.01
2022-11-17T21:56:38.048Z,13.27
2022-11-17T21:59:12.622Z,13.23
2022-11-17T22:01:40.496Z,13.23
2022-11-17T22:04:08.044Z,13.04
2022-11-17T22:06:35.410Z,13.10
2022-11-17T22:09:03.058Z,12.94
2022-11-17T22:11:35.879Z,12.87
2022-11-17T22:14:19.111Z,12.93
2022-11-17T22:16:52.106Z,13.04
2022-11-17T22:19:23.697Z,12.91
2022-11-17T22:21:53.660Z,13.02
2022-11-17T22:24:25.461Z,13.05
2022-11-17T22:27:04.598Z,13.10
2022-11-17T22:30:01.096Z,13.10
2022-11-17T22:32:53.514Z,12.82
2022-11-17T22:35:27.911Z,12.69
2022-11-17T22:38:00.438Z,12.73
2022-11-17T22:40:33.009Z,12.25
2022-11-17T22:43:21.200Z,12.41
2022-11-17T22:46:02.055Z,12.10
2022-11-17T22:48:51.397Z,12.20
2022-11-17T22:51:49.162Z,12.31
2022-11-17T22:54:23.884Z,12.13
2022-11-17T22:57:00.210Z,12.13
2022-11-17T22:59:42.101Z,12.31
2022-11-17T23:02:53.258Z,12.35
2022-11-17T23:06:15.567Z,12.14
2022-11-17T23:09:15.924Z,12.10
2022-11-17T23:12:40.656Z,12.00
2022-11-17T23:15:13.687Z,11.91
2022-11-17T23:18:35.799Z,11.76
2022-11-17T23:24:51.004Z,12.14
2022-11-17T23:27:24.797Z,12.23
2022-11-17T23:29:53.699Z,12.09
2022-11-17T23:32:36.849Z,12.04
2022-11-17T23:35:13.618Z,12.01
2022-11-17T23:38:12.882Z,12.20
2022-11-17T23:40:56.664Z,12.17
2022-11-17T23:44:11.640Z,12.29
2022-11-17T23:51:24.941Z,12.39
2022-11-17T23:53:54.395Z,12.54
2022-11-17T23:56:53.541Z,12.50
2022-11-17T23:59:22.274Z,12.46
